createdAt,value
2017-09-15T00:01:37.391Z,87.04
2017-09-15T00:04:05.297Z,87.48
2017-09-15T00:06:32.926Z,87.33
2017-09-15T00:09:00.532Z,87.43
2017-09-15T00:11:28.125Z,87.36
2017-09-15T00:13:55.736Z,87.49
2017-09-15T00:16:23.332Z,87.34
2017-09-15T00:18:50.923Z,87.40
2017-09-15T00:21:18.535Z,87.35
2017-09-15T00:23:46.109Z,87.77
2017-09-15T00:26:13.720Z,87.49
2017-09-15T00:28:41.297Z,87.53
2017-09-15T00:31:08.884Z,87.38
2017-09-15T00:33:36.500Z,87.22
2017-09-15T00:36:04.074Z,87.30
2017-09-15T00:38:31.767Z,87.55
2017-09-15T00:40:59.347Z,87.48
2017-09-15T00:43:26.935Z,87.35
2017-09-15T00:45:54.552Z,87.44
2017-09-15T00:48:22.158Z,87.37
2017-09-15T00:50:49.800Z,87.29
2017-09-15T00:53:17.462Z,87.37
2017-09-15T00:55:45.049Z,87.13
2017-09-15T00:58:12.692Z,87.01
2017-09-15T01:00:40.282Z,86.92
2017-09-15T01:03:07.903Z,87.48
2017-09-15T01:05:35.480Z,87.46
2017-09-15T01:08:03.088Z,87.20
2017-09-15T01:10:30.695Z,87.13
2017-09-15T01:12:58.349Z,86.96
2017-09-15T01:15:25.971Z,86.64
2017-09-15T01:17:53.557Z,87.26
2017-09-15T01:20:21.144Z,87.49
2017-09-15T01:22:48.768Z,87.66
2017-09-15T01:25:16.348Z,87.97
2017-09-15T01:27:43.987Z,88.23
2017-09-15T01:30:11.873Z,87.96
2017-09-15T01:32:39.540Z,87.67
2017-09-15T01:35:07.157Z,87.42
2017-09-15T01:37:34.751Z,87.80
2017-09-15T01:40:02.632Z,87.70
2017-09-15T01:42:30.208Z,87.69
2017-09-15T01:44:57.788Z,87.57
2017-09-15T01:47:25.403Z,87.59
2017-09-15T01:49:52.988Z,87.84
2017-09-15T01:52:20.629Z,87.58
2017-09-15T01:54:48.203Z,88.07
2017-09-15T01:57:15.784Z,87.86
2017-09-15T01:59:43.394Z,87.62
2017-09-15T02:02:11.285Z,87.68
2017-09-15T02:04:38.916Z,87.92
2017-09-15T02:07:06.504Z,88.01
2017-09-15T02:09:34.082Z,88.03
2017-09-15T02:12:01.689Z,88.21
2017-09-15T02:14:29.278Z,88.29
2017-09-15T02:16:56.891Z,88.08
2017-09-15T02:19:24.486Z,88.11
2017-09-15T02:21:52.067Z,88.20
2017-09-15T02:24:19.678Z,87.88
2017-09-15T02:26:47.273Z,87.70
2017-09-15T02:29:15.167Z,87.61
2017-09-15T02:31:42.780Z,87.57
2017-09-15T02:34:10.362Z,87.47
2017-09-15T02:36:38.260Z,87.46
2017-09-15T02:39:05.854Z,87.14
2017-09-15T02:41:33.467Z,87.26
2017-09-15T02:44:01.056Z,87.28
2017-09-15T02:46:28.649Z,87.02
2017-09-15T02:48:56.313Z,86.91
2017-09-15T02:51:23.898Z,86.69
2017-09-15T02:53:51.529Z,86.64
2017-09-15T02:56:19.115Z,86.73
2017-09-15T02:58:46.705Z,86.57
2017-09-15T03:01:14.320Z,86.56
2017-09-15T03:03:41.907Z,86.81
2017-09-15T03:06:09.544Z,86.63
2017-09-15T03:08:37.132Z,86.32
2017-09-15T03:11:04.834Z,86.48
2017-09-15T03:13:32.448Z,86.48
2017-09-15T03:16:00.031Z,86.71
2017-09-15T03:18:27.679Z,86.64
2017-09-15T03:20:55.269Z,86.68
2017-09-15T03:23:22.863Z,86.72
2017-09-15T03:25:50.471Z,86.67
2017-09-15T03:28:18.051Z,86.68
2017-09-15T03:30:45.672Z,86.55
2017-09-15T03:33:13.255Z,86.54
2017-09-15T03:35:40.870Z,86.65
2017-09-15T03:38:08.497Z,86.61
2017-09-15T03:40:36.072Z,86.63
2017-09-15T03:43:03.679Z,86.58
2017-09-15T03:45:31.270Z,86.40
2017-09-15T03:47:58.851Z,86.21
2017-09-15T03:50:26.460Z,86.08
2017-09-15T03:52:54.044Z,85.85
2017-09-15T03:55:21.672Z,86.00
2017-09-15T03:57:49.252Z,86.27
2017-09-15T04:00:16.840Z,86.03
2017-09-15T04:02:44.733Z,86.03
2017-09-15T04:05:12.320Z,86.12
2017-09-15T04:07:39.948Z,86.29
2017-09-15T04:10:07.553Z,86.21
2017-09-15T04:12:35.135Z,86.08
2017-09-15T04:15:02.758Z,86.09
2017-09-15T04:17:30.363Z,85.84
2017-09-15T04:19:57.982Z,85.90
2017-09-15T04:22:25.651Z,85.69
2017-09-15T04:24:53.260Z,85.32
2017-09-15T04:27:20.887Z,85.29
2017-09-15T04:29:48.510Z,85.18
2017-09-15T04:32:16.382Z,85.19
2017-09-15T04:34:43.984Z,85.18
2017-09-15T04:37:11.572Z,85.36
2017-09-15T04:39:39.374Z,85.33
2017-09-15T04:42:06.953Z,85.20
2017-09-15T04:44:34.580Z,85.14
2017-09-15T04:47:02.168Z,85.13
2017-09-15T04:49:29.752Z,85.29
2017-09-15T04:51:57.686Z,84.96
2017-09-15T04:54:25.657Z,85.01
2017-09-15T04:56:53.295Z,85.10
2017-09-15T04:59:20.883Z,85.01
2017-09-15T05:01:48.467Z,84.78
2017-09-15T05:04:16.095Z,84.95
2017-09-15T05:06:43.684Z,85.10
2017-09-15T05:09:11.420Z,84.98
2017-09-15T05:11:39.019Z,84.80
2017-09-15T05:14:06.628Z,84.96
2017-09-15T05:16:34.527Z,84.91
2017-09-15T05:19:02.100Z,84.72
2017-09-15T05:21:29.725Z,84.67
2017-09-15T05:23:57.332Z,84.74
2017-09-15T05:26:24.945Z,84.72
2017-09-15T05:28:52.559Z,84.60
2017-09-15T05:31:20.143Z,84.38
2017-09-15T05:33:47.967Z,84.16
2017-09-15T05:36:15.596Z,83.87
2017-09-15T05:38:43.228Z,83.76
2017-09-15T05:41:10.820Z,83.65
2017-09-15T05:43:38.445Z,83.54
2017-09-15T05:46:06.055Z,83.15
2017-09-15T05:48:33.682Z,82.95
2017-09-15T05:51:01.270Z,83.14
2017-09-15T05:53:28.970Z,83.01
2017-09-15T05:55:56.935Z,83.31
2017-09-15T05:58:24.527Z,83.16
2017-09-15T06:00:52.161Z,83.16
2017-09-15T06:03:19.749Z,83.35
2017-09-15T06:05:47.326Z,83.07
2017-09-15T06:08:14.939Z,82.83
2017-09-15T06:10:42.532Z,82.56
2017-09-15T06:13:10.174Z,82.55
2017-09-15T06:15:37.834Z,82.20
2017-09-15T06:18:05.411Z,82.50
2017-09-15T06:20:33.032Z,82.58
2017-09-15T06:23:00.652Z,82.74
2017-09-15T06:25:28.572Z,82.67
2017-09-15T06:27:56.156Z,81.70
2017-09-15T06:30:23.759Z,82.15
2017-09-15T06:32:52.109Z,82.23
2017-09-15T06:35:25.018Z,82.45
2017-09-15T06:37:52.642Z,82.06
2017-09-15T06:40:20.236Z,81.59
2017-09-15T06:42:47.824Z,81.63
2017-09-15T06:45:15.476Z,81.33
2017-09-15T06:47:43.089Z,81.00
2017-09-15T06:50:10.713Z,80.92
2017-09-15T06:52:38.307Z,80.64
2017-09-15T06:55:05.966Z,80.40
2017-09-15T06:57:33.576Z,80.46
2017-09-15T07:00:01.199Z,80.37
2017-09-15T07:02:28.937Z,79.63
2017-09-15T07:04:56.528Z,79.13
2017-09-15T07:07:24.131Z,78.27
2017-09-15T07:09:51.740Z,77.79
2017-09-15T07:12:19.603Z,77.80
2017-09-15T07:14:47.239Z,77.77
2017-09-15T07:17:14.824Z,77.41
2017-09-15T07:19:42.404Z,76.66
2017-09-15T07:22:11.583Z,77.23
2017-09-15T07:24:39.216Z,76.99
2017-09-15T07:27:06.853Z,77.07
2017-09-15T07:29:34.461Z,76.84
2017-09-15T07:32:02.160Z,76.12
2017-09-15T07:34:29.862Z,75.53
2017-09-15T07:36:57.444Z,75.96
2017-09-15T07:39:25.073Z,75.23
2017-09-15T07:41:52.659Z,75.13
2017-09-15T07:44:20.240Z,75.12
2017-09-15T07:46:47.867Z,74.77
2017-09-15T07:49:15.459Z,74.98
2017-09-15T07:51:43.088Z,74.75
2017-09-15T07:54:10.700Z,73.93
2017-09-15T07:56:38.279Z,74.40
2017-09-15T07:59:05.889Z,74.01
2017-09-15T08:01:33.782Z,73.58
2017-09-15T08:04:01.407Z,73.00
2017-09-15T08:06:29.261Z,72.41
2017-09-15T08:08:56.851Z,72.69
2017-09-15T08:11:24.465Z,71.97
2017-09-15T08:13:52.043Z,72.03
2017-09-15T08:16:19.683Z,70.96
2017-09-15T08:18:47.258Z,70.67
2017-09-15T08:21:14.838Z,70.78
2017-09-15T08:23:42.459Z,70.60
2017-09-15T08:26:10.048Z,70.82
2017-09-15T08:28:37.662Z,71.10
2017-09-15T08:31:05.241Z,71.00
2017-09-15T08:33:32.815Z,69.92
2017-09-15T08:36:00.416Z,69.87
2017-09-15T08:38:28.324Z,68.75
2017-09-15T08:40:56.291Z,68.02
2017-09-15T08:43:23.876Z,67.70
2017-09-15T08:45:51.487Z,66.52
2017-09-15T08:48:19.108Z,65.51
2017-09-15T08:50:46.692Z,64.56
2017-09-15T08:53:14.326Z,65.37
2017-09-15T08:55:41.981Z,64.78
2017-09-15T08:58:09.556Z,64.36
2017-09-15T09:00:37.472Z,63.29
2017-09-15T09:03:05.052Z,62.39
2017-09-15T09:05:32.815Z,62.22
2017-09-15T09:08:00.411Z,62.94
2017-09-15T09:10:27.993Z,63.23
2017-09-15T09:12:55.617Z,63.89
2017-09-15T09:15:23.195Z,63.60
2017-09-15T09:17:50.825Z,64.56
2017-09-15T09:20:18.553Z,65.43
2017-09-15T09:22:46.155Z,66.43
2017-09-15T09:25:14.030Z,65.65
2017-09-15T09:27:41.616Z,65.54
2017-09-15T09:30:09.241Z,65.65
2017-09-15T09:32:36.836Z,64.46
2017-09-15T09:35:04.425Z,62.83
2017-09-15T09:37:32.041Z,60.91
2017-09-15T09:39:59.624Z,61.17
2017-09-15T09:42:27.286Z,60.56
2017-09-15T09:44:55.105Z,59.66
2017-09-15T09:47:22.677Z,59.08
2017-09-15T09:49:50.345Z,60.75
2017-09-15T09:52:17.920Z,61.81
2017-09-15T09:54:45.546Z,62.23
2017-09-15T09:57:13.129Z,62.28
2017-09-15T09:59:41.001Z,61.98
2017-09-15T10:02:08.611Z,61.85
2017-09-15T10:04:36.192Z,61.26
2017-09-15T10:07:03.813Z,60.69
2017-09-15T10:09:31.412Z,59.83
2017-09-15T10:11:59.808Z,57.50
2017-09-15T10:14:27.407Z,57.47
2017-09-15T10:16:55.034Z,57.76
2017-09-15T10:19:22.668Z,57.56
2017-09-15T10:21:50.237Z,57.72
2017-09-15T10:24:17.820Z,57.90
2017-09-15T10:26:45.492Z,56.77
2017-09-15T10:29:13.092Z,54.38
2017-09-15T10:31:41.043Z,54.71
2017-09-15T10:34:08.641Z,54.45
2017-09-15T10:36:36.562Z,54.45
2017-09-15T10:39:04.169Z,53.84
2017-09-15T10:41:31.743Z,53.97
2017-09-15T10:43:59.384Z,54.78
2017-09-15T10:46:27.214Z,55.41
2017-09-15T10:48:55.087Z,56.33
2017-09-15T10:51:22.956Z,56.48
2017-09-15T10:53:50.534Z,55.73
2017-09-15T10:56:18.141Z,55.36
2017-09-15T10:58:51.572Z,54.41
2017-09-15T11:01:19.184Z,54.07
2017-09-15T11:03:46.769Z,54.57
2017-09-15T11:06:14.369Z,56.17
2017-09-15T11:08:41.963Z,57.38
2017-09-15T11:11:09.572Z,57.80
2017-09-15T11:13:37.575Z,57.98
2017-09-15T11:16:05.143Z,57.81
2017-09-15T11:18:32.728Z,57.86
2017-09-15T11:21:00.408Z,57.36
2017-09-15T11:23:28.079Z,56.54
2017-09-15T11:25:55.715Z,57.16
2017-09-15T11:28:23.748Z,57.07
2017-09-15T11:30:51.360Z,57.10
2017-09-15T11:33:18.969Z,56.42
2017-09-15T11:35:46.838Z,55.93
2017-09-15T11:38:14.479Z,56.12
2017-09-15T11:40:42.053Z,56.02
2017-09-15T11:43:09.644Z,56.67
2017-09-15T11:45:37.278Z,56.95
2017-09-15T11:48:05.801Z,56.76
2017-09-15T11:50:33.418Z,56.84
2017-09-15T11:53:01.008Z,56.75
2017-09-15T11:55:28.843Z,56.37
2017-09-15T11:57:56.464Z,56.69
2017-09-15T12:00:24.376Z,56.72
2017-09-15T12:02:51.950Z,55.58
2017-09-15T12:05:19.576Z,55.45
2017-09-15T12:07:47.162Z,55.44
2017-09-15T12:10:14.729Z,55.04
2017-09-15T12:12:42.587Z,54.22
2017-09-15T12:15:10.454Z,53.44
2017-09-15T12:17:38.352Z,54.27
2017-09-15T12:20:06.196Z,51.40
2017-09-15T12:22:33.781Z,43.71
2017-09-15T12:25:01.404Z,41.52
2017-09-15T12:27:28.998Z,37.78
2017-09-15T12:29:56.692Z,35.51
2017-09-15T12:32:24.280Z,38.81
2017-09-15T12:34:51.883Z,40.60
2017-09-15T12:37:19.840Z,43.99
2017-09-15T12:39:47.422Z,47.06
2017-09-15T12:42:15.036Z,48.67
2017-09-15T12:44:42.640Z,50.32
2017-09-15T12:47:10.294Z,50.41
2017-09-15T12:49:37.903Z,50.73
2017-09-15T12:52:05.487Z,51.53
2017-09-15T12:54:33.148Z,51.70
2017-09-15T12:57:00.821Z,51.82
2017-09-15T12:59:28.445Z,52.92
2017-09-15T13:01:56.075Z,52.46
2017-09-15T13:04:23.670Z,52.37
2017-09-15T13:06:51.291Z,51.90
2017-09-15T13:09:19.278Z,51.33
2017-09-15T13:11:46.858Z,50.70
2017-09-15T13:14:14.482Z,51.14
2017-09-15T13:16:42.071Z,50.56
2017-09-15T13:19:09.704Z,50.61
2017-09-15T13:21:37.311Z,51.02
2017-09-15T13:24:05.228Z,51.48
2017-09-15T13:26:32.829Z,52.23
2017-09-15T13:29:00.419Z,51.06
2017-09-15T13:31:28.062Z,50.70
2017-09-15T13:33:55.657Z,50.09
2017-09-15T13:36:23.540Z,50.83
2017-09-15T13:38:51.155Z,50.37
2017-09-15T13:41:18.983Z,49.60
2017-09-15T13:43:46.593Z,48.89
2017-09-15T13:46:14.176Z,50.02
2017-09-15T13:48:41.770Z,50.10
2017-09-15T13:51:09.433Z,51.01
2017-09-15T13:53:37.011Z,52.22
2017-09-15T13:56:04.667Z,52.42
2017-09-15T13:58:32.308Z,52.52
2017-09-15T14:00:59.891Z,51.82
2017-09-15T14:03:27.834Z,52.77
2017-09-15T14:05:55.448Z,52.84
2017-09-15T14:08:23.068Z,53.29
2017-09-15T14:10:50.936Z,53.27
2017-09-15T14:13:18.813Z,53.55
2017-09-15T14:15:46.468Z,54.46
2017-09-15T14:18:14.039Z,55.52
2017-09-15T14:20:41.666Z,56.07
2017-09-15T14:23:09.247Z,57.46
2017-09-15T14:25:37.113Z,58.38
2017-09-15T14:28:04.720Z,60.00
2017-09-15T14:30:32.300Z,62.28
2017-09-15T14:32:59.927Z,64.60
2017-09-15T14:35:27.522Z,66.40
2017-09-15T14:37:55.099Z,67.52
2017-09-15T14:40:22.710Z,68.60
2017-09-15T14:42:51.471Z,69.41
2017-09-15T14:45:19.084Z,68.43
2017-09-15T14:47:47.005Z,65.99
2017-09-15T14:50:14.870Z,64.89
2017-09-15T14:52:42.471Z,63.30
2017-09-15T14:55:10.053Z,64.43
2017-09-15T14:57:37.666Z,63.31
2017-09-15T15:00:05.240Z,62.92
2017-09-15T15:02:32.832Z,62.03
2017-09-15T15:05:00.745Z,61.71
2017-09-15T15:07:28.323Z,62.56
2017-09-15T15:09:55.948Z,61.85
2017-09-15T15:12:23.517Z,62.84
2017-09-15T15:14:51.091Z,61.79
2017-09-15T15:17:18.716Z,61.53
2017-09-15T15:19:46.285Z,61.94
2017-09-15T15:22:13.895Z,61.78
2017-09-15T15:24:41.474Z,61.47
2017-09-15T15:27:09.072Z,61.40
2017-09-15T15:29:36.962Z,60.83
2017-09-15T15:32:04.572Z,61.23
2017-09-15T15:34:32.206Z,60.65
2017-09-15T15:37:00.057Z,61.31
2017-09-15T15:39:27.628Z,60.36
2017-09-15T15:41:55.536Z,60.18
2017-09-15T15:44:23.112Z,60.82
2017-09-15T15:46:51.344Z,60.90
2017-09-15T15:49:18.912Z,60.83
2017-09-15T15:51:46.487Z,61.41
2017-09-15T15:54:14.132Z,61.61
2017-09-15T15:56:41.709Z,61.87
2017-09-15T15:59:09.639Z,62.23
2017-09-15T16:01:37.236Z,62.91
2017-09-15T16:04:05.103Z,63.60
2017-09-15T16:06:32.946Z,63.80
2017-09-15T16:09:00.543Z,63.97
2017-09-15T16:11:28.166Z,63.86
2017-09-15T16:13:55.732Z,63.34
2017-09-15T16:16:23.343Z,63.71
2017-09-15T16:18:50.955Z,63.29
2017-09-15T16:21:18.551Z,63.85
2017-09-15T16:23:46.170Z,63.87
2017-09-15T16:26:15.726Z,64.26
2017-09-15T16:28:43.606Z,64.45
2017-09-15T16:31:12.051Z,64.52
2017-09-15T16:33:39.628Z,64.82
2017-09-15T16:36:07.252Z,64.84
2017-09-15T16:38:40.458Z,64.95
2017-09-15T16:41:13.611Z,65.12
2017-09-15T16:43:46.803Z,65.07
2017-09-15T16:46:20.022Z,65.41
2017-09-15T16:48:53.140Z,65.71
2017-09-15T16:51:20.756Z,65.91
2017-09-15T16:53:48.359Z,66.13
2017-09-15T16:56:16.209Z,66.64
2017-09-15T16:58:44.124Z,67.03
2017-09-15T17:01:11.721Z,67.35
2017-09-15T17:03:39.346Z,67.70
2017-09-15T17:06:06.932Z,67.59
2017-09-15T17:08:34.516Z,67.75
2017-09-15T17:11:02.142Z,68.12
2017-09-15T17:13:29.716Z,68.29
2017-09-15T17:15:57.323Z,68.43
2017-09-15T17:18:24.918Z,68.68
2017-09-15T17:20:52.531Z,68.87
2017-09-15T17:23:20.170Z,68.82
2017-09-15T17:25:47.919Z,68.88
2017-09-15T17:28:15.545Z,69.04
2017-09-15T17:30:43.133Z,69.16
2017-09-15T17:33:10.720Z,69.43
2017-09-15T17:35:38.340Z,69.58
2017-09-15T17:38:06.165Z,69.58
2017-09-15T17:40:33.783Z,69.99
2017-09-15T17:43:01.376Z,69.95
2017-09-15T17:45:28.960Z,70.07
2017-09-15T17:47:56.575Z,70.14
2017-09-15T17:50:24.484Z,70.33
2017-09-15T17:52:52.124Z,70.55
2017-09-15T17:55:19.709Z,70.86
2017-09-15T17:57:47.295Z,70.89
2017-09-15T18:00:14.903Z,70.91
2017-09-15T18:02:42.487Z,71.21
2017-09-15T18:05:10.111Z,71.31
2017-09-15T18:07:38.020Z,71.75
2017-09-15T18:10:05.623Z,71.99
2017-09-15T18:12:33.325Z,72.29
2017-09-15T18:15:00.915Z,72.30
2017-09-15T18:17:28.533Z,72.40
2017-09-15T18:19:56.445Z,72.59
2017-09-15T18:22:24.045Z,72.66
2017-09-15T18:24:51.650Z,72.63
2017-09-15T18:27:19.246Z,72.71
2017-09-15T18:29:46.891Z,72.66
2017-09-15T18:32:14.473Z,72.61
2017-09-15T18:34:42.103Z,72.62
2017-09-15T18:37:09.717Z,72.90
2017-09-15T18:39:37.340Z,72.68
2017-09-15T18:42:04.951Z,72.61
2017-09-15T18:44:32.529Z,72.61
2017-09-15T18:47:00.227Z,72.71
2017-09-15T18:49:27.840Z,72.09
2017-09-15T18:51:55.448Z,72.30
2017-09-15T18:54:23.060Z,72.39
2017-09-15T18:56:50.648Z,72.36
2017-09-15T18:59:18.256Z,72.49
2017-09-15T19:01:45.863Z,72.28
2017-09-15T19:04:13.460Z,72.35
2017-09-15T19:06:41.094Z,72.44
2017-09-15T19:09:08.671Z,72.60
2017-09-15T19:11:36.251Z,72.54
2017-09-15T19:14:03.861Z,72.94
2017-09-15T19:16:31.767Z,73.34
2017-09-15T19:18:59.389Z,73.36
2017-09-15T19:21:26.967Z,73.26
2017-09-15T19:23:54.561Z,73.64
2017-09-15T19:26:22.647Z,73.49
2017-09-15T19:28:50.231Z,74.03
2017-09-15T19:31:17.840Z,74.16
2017-09-15T19:33:45.447Z,74.28
2017-09-15T19:36:13.029Z,74.50
2017-09-15T19:38:40.643Z,74.30
2017-09-15T19:41:08.220Z,74.44
2017-09-15T19:43:35.822Z,74.92
2017-09-15T19:46:03.456Z,74.84
2017-09-15T19:48:31.035Z,75.03
2017-09-15T19:50:58.636Z,75.02
2017-09-15T19:53:26.259Z,75.24
2017-09-15T19:55:53.879Z,75.50
2017-09-15T19:58:21.479Z,75.44
2017-09-15T20:00:49.095Z,75.67
2017-09-15T20:03:16.683Z,75.97
2017-09-15T20:05:44.343Z,76.08
2017-09-15T20:08:11.941Z,75.84
2017-09-15T20:10:39.782Z,75.88
2017-09-15T20:13:07.395Z,76.22
2017-09-15T20:15:35.021Z,76.20
2017-09-15T20:18:02.941Z,76.24
2017-09-15T20:20:30.603Z,75.94
2017-09-15T20:22:58.180Z,76.06
2017-09-15T20:25:25.791Z,76.05
2017-09-15T20:27:53.391Z,76.17
2017-09-15T20:30:21.017Z,76.04
2017-09-15T20:32:48.915Z,76.05
2017-09-15T20:35:16.504Z,76.00
2017-09-15T20:37:44.112Z,75.91
2017-09-15T20:40:11.692Z,75.86
2017-09-15T20:42:39.320Z,75.77
2017-09-15T20:45:06.909Z,75.83
2017-09-15T20:47:34.792Z,75.59
2017-09-15T20:50:02.405Z,75.43
2017-09-15T20:52:29.980Z,75.42
2017-09-15T20:54:57.622Z,75.82
2017-09-15T20:57:25.204Z,75.60
2017-09-15T20:59:52.791Z,75.24
2017-09-15T21:02:20.402Z,75.58
2017-09-15T21:04:47.982Z,75.51
2017-09-15T21:07:15.610Z,75.46
2017-09-15T21:09:43.212Z,75.49
2017-09-15T21:12:10.796Z,75.38
2017-09-15T21:14:38.406Z,75.66
2017-09-15T21:17:05.979Z,75.94
2017-09-15T21:19:33.614Z,75.95
2017-09-15T21:22:01.196Z,75.99
2017-09-15T21:24:28.792Z,75.82
2017-09-15T21:26:56.410Z,75.78
2017-09-15T21:29:23.995Z,75.85
2017-09-15T21:31:51.652Z,75.86
2017-09-15T21:34:19.384Z,75.63
2017-09-15T21:36:46.964Z,75.39
2017-09-15T21:39:15.172Z,75.29
2017-09-15T21:41:42.767Z,75.49
2017-09-15T21:44:10.404Z,75.53
2017-09-15T21:46:37.980Z,75.69
2017-09-15T21:49:05.663Z,75.60
2017-09-15T21:51:33.527Z,75.42
2017-09-15T21:54:01.134Z,75.60
2017-09-15T21:56:29.004Z,75.59
2017-09-15T21:58:56.606Z,75.56
2017-09-15T22:01:24.187Z,75.67
2017-09-15T22:03:57.419Z,75.62
2017-09-15T22:06:24.995Z,75.75
2017-09-15T22:08:52.623Z,75.83
2017-09-15T22:11:20.196Z,75.67
2017-09-15T22:13:47.835Z,75.66
2017-09-15T22:16:15.477Z,75.62
2017-09-15T22:18:43.343Z,75.78
2017-09-15T22:21:11.312Z,75.46
2017-09-15T22:23:39.180Z,75.73
2017-09-15T22:26:06.766Z,75.71
2017-09-15T22:28:34.363Z,75.56
2017-09-15T22:31:02.275Z,75.54
2017-09-15T22:33:29.919Z,75.63
2017-09-15T22:35:57.506Z,75.78
2017-09-15T22:38:25.086Z,75.49
2017-09-15T22:40:52.687Z,75.38
2017-09-15T22:43:20.588Z,75.25
2017-09-15T22:45:48.227Z,75.37
2017-09-15T22:48:16.121Z,75.57
2017-09-15T22:50:43.716Z,75.55
2017-09-15T22:53:11.652Z,75.56
2017-09-15T22:55:39.231Z,75.27
2017-09-15T22:58:06.839Z,75.26
2017-09-15T23:00:34.542Z,75.24
2017-09-15T23:03:02.166Z,75.58
2017-09-15T23:05:29.741Z,75.86
2017-09-15T23:07:57.323Z,76.29
2017-09-15T23:10:25.031Z,76.34
2017-09-15T23:12:52.607Z,76.42
2017-09-15T23:15:20.224Z,76.47
2017-09-15T23:17:48.076Z,77.33
2017-09-15T23:20:15.660Z,77.53
2017-09-15T23:22:43.268Z,77.41
2017-09-15T23:25:10.857Z,77.48
2017-09-15T23:27:38.474Z,77.13
2017-09-15T23:30:06.056Z,77.12
2017-09-15T23:32:33.634Z,76.96
2017-09-15T23:35:01.512Z,76.93
2017-09-15T23:37:29.244Z,76.69
2017-09-15T23:39:56.863Z,76.88
2017-09-15T23:42:24.480Z,76.97
2017-09-15T23:44:52.065Z,77.12
2017-09-15T23:47:19.672Z,77.30
2017-09-15T23:49:47.243Z,77.31
2017-09-15T23:52:14.884Z,77.36
2017-09-15T23:54:42.463Z,77.32
2017-09-15T23:57:10.381Z,77.53
2017-09-15T23:59:37.985Z,77.44
